KLM3CM ENBR-LOWW
Flight info
| Callsign | KLM3CM |
|---|---|
| Flight time | N/A |
| Altitude | 39000 |
| Route | TINIG DCT NEDIK DCT HDO DCT EVIKU DCT BITSI DCT MIKOV MIKOV8W |
| Aircraft | A20N/M-SDE2E3FGHIRWXY/LB1 |
Departure
| Time | 2026-05-06 19:05 |
|---|---|
| Airport | Bergen Airport, Flesland (ENBR) |
Arrival
| Time | N/A |
|---|---|
| Airport | Vienna International Airport (LOWW) |
| Time | Latitude | Longitude | Altitude | Speed | Heading |
|---|---|---|---|---|---|
| 2026-05-06 18:28 | 60.28983 | 5.22809 | 176 ft | 0 kts | 208° |
| 2026-05-06 18:41 | 60.28990 | 5.22817 | 176 ft | 5 kts | 207° |
| 2026-05-06 18:41 | 60.29008 | 5.22834 | 177 ft | 0 kts | 204° |
| 2026-05-06 18:42 | 60.29010 | 5.22836 | 177 ft | 4 kts | 204° |
| 2026-05-06 18:42 | 60.29029 | 5.22857 | 177 ft | 2 kts | 214° |
| 2026-05-06 18:42 | 60.29032 | 5.22861 | 178 ft | 0 kts | 214° |
| 2026-05-06 18:51 | 60.29028 | 5.22839 | 177 ft | 4 kts | 264° |
| 2026-05-06 18:51 | 60.29041 | 5.22766 | 178 ft | 8 kts | 290° |
| 2026-05-06 18:51 | 60.29047 | 5.22661 | 177 ft | 0 kts | 262° |
| 2026-05-06 18:52 | 60.29047 | 5.22657 | 177 ft | 2 kts | 262° |
| 2026-05-06 18:52 | 60.29038 | 5.22544 | 175 ft | 9 kts | 261° |
| 2026-05-06 18:52 | 60.29037 | 5.22527 | 175 ft | 0 kts | 261° |
| 2026-05-06 18:55 | 60.29034 | 5.22501 | 174 ft | 6 kts | 261° |
| 2026-05-06 18:55 | 60.29049 | 5.22367 | 170 ft | 14 kts | 321° |
| 2026-05-06 18:55 | 60.29151 | 5.22327 | 171 ft | 15 kts | 354° |
| 2026-05-06 18:56 | 60.29258 | 5.22291 | 168 ft | 17 kts | 347° |
| 2026-05-06 18:56 | 60.29379 | 5.22248 | 165 ft | 19 kts | 350° |
| 2026-05-06 18:56 | 60.29523 | 5.22199 | 158 ft | 23 kts | 350° |
| 2026-05-06 18:56 | 60.29662 | 5.22151 | 150 ft | 11 kts | 351° |
| 2026-05-06 18:57 | 60.29666 | 5.22150 | 150 ft | 0 kts | 351° |
| 2026-05-06 18:58 | 60.29670 | 5.22149 | 150 ft | 3 kts | 351° |
| 2026-05-06 18:58 | 60.29707 | 5.22134 | 150 ft | 8 kts | 341° |
| 2026-05-06 18:58 | 60.29746 | 5.22025 | 151 ft | 13 kts | 310° |
| 2026-05-06 18:59 | 60.29847 | 5.21968 | 154 ft | 17 kts | 352° |
| 2026-05-06 18:59 | 60.29977 | 5.21925 | 159 ft | 21 kts | 350° |
| 2026-05-06 18:59 | 60.30129 | 5.21873 | 167 ft | 23 kts | 350° |
| 2026-05-06 18:59 | 60.30300 | 5.21815 | 171 ft | 27 kts | 351° |
| 2026-05-06 19:00 | 60.30488 | 5.21753 | 178 ft | 28 kts | 351° |
| 2026-05-06 19:00 | 60.30613 | 5.21710 | 183 ft | 11 kts | 350° |
| 2026-05-06 19:00 | 60.30619 | 5.21708 | 184 ft | 0 kts | 349° |
| 2026-05-06 19:01 | 60.30629 | 5.21702 | 185 ft | 5 kts | 341° |
| 2026-05-06 19:02 | 60.30663 | 5.21629 | 196 ft | 10 kts | 285° |
| 2026-05-06 19:02 | 60.30662 | 5.21580 | 185 ft | 0 kts | 262° |
| 2026-05-06 19:03 | 60.30662 | 5.21579 | 185 ft | 1 kts | 262° |
| 2026-05-06 19:04 | 60.30657 | 5.21514 | 192 ft | 8 kts | 262° |
| 2026-05-06 19:04 | 60.30635 | 5.21403 | 198 ft | 10 kts | 198° |
| 2026-05-06 19:04 | 60.30570 | 5.21406 | 183 ft | 0 kts | 171° |
| 2026-05-06 19:05 | 60.30493 | 5.21431 | 178 ft | 38 kts | 170° |
| 2026-05-06 19:05 | 60.29982 | 5.21606 | 165 ft | 110 kts | 171° |
| 2026-05-06 19:05 | 60.28990 | 5.21919 | 196 ft | 171 kts | 173° |
| 2026-05-06 19:05 | 60.27813 | 5.22333 | 847 ft | 168 kts | 172° |
| 2026-05-06 19:06 | 60.26700 | 5.22713 | 1785 ft | 158 kts | 173° |
| 2026-05-06 19:06 | 60.25559 | 5.23091 | 2242 ft | 179 kts | 173° |
| 2026-05-06 19:06 | 60.24244 | 5.23519 | 2488 ft | 203 kts | 172° |
| 2026-05-06 19:06 | 60.22812 | 5.23993 | 2764 ft | 218 kts | 172° |
| 2026-05-06 19:07 | 60.21270 | 5.24508 | 3095 ft | 233 kts | 172° |
| 2026-05-06 19:07 | 60.19648 | 5.25051 | 3557 ft | 239 kts | 172° |
| 2026-05-06 19:07 | 60.17969 | 5.25612 | 3960 ft | 254 kts | 172° |
| 2026-05-06 19:07 | 60.16184 | 5.26205 | 4668 ft | 263 kts | 172° |
| 2026-05-06 19:08 | 60.14365 | 5.26812 | 5617 ft | 266 kts | 172° |
| 2026-05-06 19:08 | 60.12530 | 5.27424 | 6604 ft | 269 kts | 173° |
| 2026-05-06 19:08 | 60.10673 | 5.28117 | 7505 ft | 275 kts | 165° |
| 2026-05-06 19:08 | 60.09041 | 5.30144 | 8376 ft | 285 kts | 132° |
| 2026-05-06 19:09 | 60.08163 | 5.33706 | 9247 ft | 291 kts | 98° |
| 2026-05-06 19:09 | 60.08344 | 5.37698 | 10126 ft | 292 kts | 66° |
| 2026-05-06 19:09 | 60.09202 | 5.41336 | 10948 ft | 296 kts | 61° |
| 2026-05-06 19:09 | 60.10119 | 5.45078 | 11781 ft | 302 kts | 54° |
| 2026-05-06 19:10 | 60.11626 | 5.47962 | 12494 ft | 304 kts | 24° |
| 2026-05-06 19:10 | 60.13681 | 5.49053 | 12846 ft | 315 kts | 355° |
| 2026-05-06 19:10 | 60.15856 | 5.48154 | 13190 ft | 330 kts | 338° |
| 2026-05-06 19:10 | 60.18117 | 5.46713 | 13531 ft | 351 kts | 340° |
| 2026-05-06 19:11 | 60.20560 | 5.45519 | 13880 ft | 372 kts | 345° |
| 2026-05-06 19:11 | 60.23157 | 5.44609 | 14394 ft | 384 kts | 347° |
| 2026-05-06 19:11 | 60.25818 | 5.43880 | 15108 ft | 388 kts | 348° |
| 2026-05-06 19:11 | 60.28482 | 5.43251 | 15828 ft | 393 kts | 348° |
| 2026-05-06 19:12 | 60.31180 | 5.42389 | 16532 ft | 394 kts | 344° |
| 2026-05-06 19:12 | 60.33960 | 5.42255 | 16963 ft | 410 kts | 1° |
| 2026-05-06 19:12 | 60.36721 | 5.44000 | 17045 ft | 427 kts | 20° |
| 2026-05-06 19:12 | 60.39169 | 5.47560 | 17050 ft | 442 kts | 40° |
| 2026-05-06 19:13 | 60.41008 | 5.52607 | 17039 ft | 453 kts | 59° |
| 2026-05-06 19:13 | 60.42029 | 5.58674 | 17044 ft | 460 kts | 78° |
| 2026-05-06 19:13 | 60.42112 | 5.65145 | 17066 ft | 463 kts | 98° |
| 2026-05-06 19:13 | 60.41215 | 5.71296 | 17504 ft | 465 kts | 118° |
| 2026-05-06 19:14 | 60.39442 | 5.76697 | 18080 ft | 462 kts | 137° |
| 2026-05-06 19:14 | 60.37018 | 5.80889 | 18608 ft | 459 kts | 150° |
| 2026-05-06 19:14 | 60.34552 | 5.85087 | 19227 ft | 469 kts | 141° |
| 2026-05-06 19:14 | 60.32152 | 5.89531 | 19802 ft | 465 kts | 151° |
| 2026-05-06 19:15 | 60.29387 | 5.92796 | 20477 ft | 461 kts | 159° |
| 2026-05-06 19:15 | 60.26581 | 5.96008 | 21145 ft | 466 kts | 156° |
| 2026-05-06 19:15 | 60.23839 | 5.99560 | 21726 ft | 471 kts | 153° |
| 2026-05-06 19:15 | 60.21152 | 6.03388 | 22229 ft | 477 kts | 150° |
| 2026-05-06 19:16 | 60.18488 | 6.07408 | 22727 ft | 482 kts | 149° |
| 2026-05-06 19:16 | 60.15857 | 6.11500 | 23253 ft | 486 kts | 149° |
| 2026-05-06 19:16 | 60.13190 | 6.15709 | 23746 ft | 490 kts | 149° |
| 2026-05-06 19:16 | 60.10516 | 6.19959 | 24192 ft | 492 kts | 148° |
| 2026-05-06 19:17 | 60.07827 | 6.24247 | 24650 ft | 494 kts | 148° |
| 2026-05-06 19:17 | 60.05061 | 6.28289 | 25072 ft | 491 kts | 153° |
| 2026-05-06 19:17 | 60.02204 | 6.32067 | 25560 ft | 490 kts | 155° |
| 2026-05-06 19:17 | 59.99346 | 6.35714 | 26197 ft | 486 kts | 155° |
| 2026-05-06 19:18 | 59.96490 | 6.39277 | 26835 ft | 482 kts | 156° |
| 2026-05-06 19:18 | 59.93644 | 6.42781 | 27456 ft | 479 kts | 156° |
| 2026-05-06 19:18 | 59.90818 | 6.46237 | 28077 ft | 476 kts | 157° |
| 2026-05-06 19:18 | 59.88041 | 6.49636 | 28664 ft | 474 kts | 157° |
| 2026-05-06 19:19 | 59.85247 | 6.53060 | 29278 ft | 471 kts | 157° |
| 2026-05-06 19:19 | 59.82464 | 6.56468 | 29850 ft | 468 kts | 157° |
| 2026-05-06 19:19 | 59.79698 | 6.59850 | 30349 ft | 465 kts | 157° |
| 2026-05-06 19:19 | 59.76948 | 6.63201 | 30755 ft | 464 kts | 157° |
| 2026-05-06 19:20 | 59.74187 | 6.66553 | 31028 ft | 466 kts | 156° |
| 2026-05-06 19:20 | 59.71416 | 6.69908 | 31342 ft | 467 kts | 156° |
| 2026-05-06 19:20 | 59.68650 | 6.73253 | 31642 ft | 467 kts | 156° |
| 2026-05-06 19:20 | 59.65905 | 6.76567 | 31919 ft | 468 kts | 156° |
| 2026-05-06 19:21 | 59.63122 | 6.79920 | 32219 ft | 469 kts | 156° |
| 2026-05-06 19:21 | 59.60337 | 6.83270 | 32576 ft | 469 kts | 155° |
| 2026-05-06 19:21 | 59.57543 | 6.86626 | 32871 ft | 470 kts | 155° |
| 2026-05-06 19:21 | 59.54746 | 6.89977 | 33010 ft | 473 kts | 155° |
| 2026-05-06 19:22 | 59.51924 | 6.93350 | 33268 ft | 474 kts | 155° |
| 2026-05-06 19:22 | 59.49109 | 6.96713 | 33603 ft | 473 kts | 155° |
| 2026-05-06 19:22 | 59.46294 | 7.00068 | 33906 ft | 473 kts | 155° |
| 2026-05-06 19:22 | 59.43480 | 7.03415 | 34148 ft | 474 kts | 155° |
| 2026-05-06 19:23 | 59.40662 | 7.06760 | 34394 ft | 473 kts | 155° |
| 2026-05-06 19:23 | 59.37843 | 7.10098 | 34656 ft | 472 kts | 154° |
| 2026-05-06 19:23 | 59.35031 | 7.13423 | 34925 ft | 472 kts | 155° |
| 2026-05-06 19:23 | 59.32263 | 7.16689 | 35194 ft | 471 kts | 154° |
| 2026-05-06 19:24 | 59.29458 | 7.19992 | 35438 ft | 470 kts | 154° |
| 2026-05-06 19:24 | 59.26654 | 7.23287 | 35666 ft | 470 kts | 154° |
| 2026-05-06 19:24 | 59.23851 | 7.26575 | 35897 ft | 470 kts | 154° |
| 2026-05-06 19:24 | 59.21053 | 7.29850 | 36119 ft | 469 kts | 154° |
| 2026-05-06 19:25 | 59.18251 | 7.33123 | 36348 ft | 469 kts | 154° |
| 2026-05-06 19:25 | 59.15455 | 7.36384 | 36563 ft | 469 kts | 154° |
| 2026-05-06 19:25 | 59.12660 | 7.39637 | 36780 ft | 468 kts | 154° |
| 2026-05-06 19:25 | 59.09899 | 7.42844 | 36996 ft | 468 kts | 154° |
| 2026-05-06 19:26 | 59.07104 | 7.46084 | 37188 ft | 468 kts | 154° |
| 2026-05-06 19:26 | 59.04308 | 7.49320 | 37378 ft | 468 kts | 154° |
| 2026-05-06 19:26 | 59.01514 | 7.52546 | 37562 ft | 467 kts | 154° |
| 2026-05-06 19:26 | 58.98720 | 7.55767 | 37740 ft | 467 kts | 154° |
| 2026-05-06 19:27 | 58.95919 | 7.58989 | 37939 ft | 467 kts | 154° |
| 2026-05-06 19:27 | 58.93127 | 7.62195 | 38117 ft | 467 kts | 154° |
| 2026-05-06 19:27 | 58.90332 | 7.65398 | 38288 ft | 467 kts | 154° |
| 2026-05-06 19:27 | 58.87535 | 7.68598 | 38464 ft | 467 kts | 154° |
| 2026-05-06 19:28 | 58.84776 | 7.71749 | 38622 ft | 467 kts | 154° |
| 2026-05-06 19:28 | 58.81991 | 7.74923 | 38754 ft | 467 kts | 154° |
| 2026-05-06 19:28 | 58.79185 | 7.78116 | 38870 ft | 467 kts | 154° |
| 2026-05-06 19:28 | 58.76391 | 7.81287 | 38981 ft | 467 kts | 154° |
| 2026-05-06 19:29 | 58.73589 | 7.84462 | 38997 ft | 467 kts | 154° |
| 2026-05-06 19:29 | 58.67998 | 7.90781 | 38993 ft | 465 kts | 154° |
| 2026-05-06 19:30 | 58.62414 | 7.97068 | 38995 ft | 465 kts | 154° |
| 2026-05-06 19:30 | 58.56863 | 8.03293 | 38990 ft | 465 kts | 154° |
| 2026-05-06 19:31 | 58.51275 | 8.09538 | 38985 ft | 465 kts | 154° |
| 2026-05-06 19:31 | 58.42897 | 8.18857 | 38973 ft | 465 kts | 154° |
| 2026-05-06 19:32 | 58.37300 | 8.25053 | 38965 ft | 465 kts | 154° |
| 2026-05-06 19:32 | 58.31711 | 8.31218 | 38966 ft | 464 kts | 154° |
| 2026-05-06 19:33 | 58.26157 | 8.37322 | 38967 ft | 464 kts | 154° |
| 2026-05-06 19:33 | 58.20559 | 8.43451 | 38965 ft | 464 kts | 154° |
| 2026-05-06 19:34 | 58.14962 | 8.49558 | 38975 ft | 464 kts | 154° |
| 2026-05-06 19:34 | 58.09361 | 8.55645 | 38970 ft | 464 kts | 154° |
| 2026-05-06 19:35 | 58.03756 | 8.61716 | 38974 ft | 464 kts | 154° |
| 2026-05-06 19:35 | 57.98155 | 8.67760 | 38971 ft | 464 kts | 154° |
| 2026-05-06 19:36 | 57.92591 | 8.73741 | 38978 ft | 464 kts | 154° |
| 2026-05-06 19:36 | 57.86989 | 8.79743 | 38976 ft | 463 kts | 154° |
| 2026-05-06 19:37 | 57.81379 | 8.85731 | 38975 ft | 463 kts | 155° |
| 2026-05-06 19:37 | 57.75785 | 8.91681 | 38974 ft | 463 kts | 155° |
| 2026-05-06 19:38 | 57.70181 | 8.97619 | 38976 ft | 462 kts | 155° |
| 2026-05-06 19:38 | 57.64620 | 9.03491 | 38977 ft | 462 kts | 155° |
| 2026-05-06 19:39 | 57.59022 | 9.09381 | 38981 ft | 462 kts | 155° |
| 2026-05-06 19:39 | 57.53430 | 9.15245 | 38984 ft | 461 kts | 155° |
| 2026-05-06 19:40 | 57.47838 | 9.21087 | 38986 ft | 461 kts | 155° |
| 2026-05-06 19:40 | 57.42283 | 9.26870 | 38987 ft | 460 kts | 155° |
| 2026-05-06 19:41 | 57.36696 | 9.32666 | 38985 ft | 460 kts | 155° |
| 2026-05-06 19:41 | 57.31114 | 9.38436 | 38989 ft | 459 kts | 155° |
| 2026-05-06 19:42 | 57.25534 | 9.44185 | 38989 ft | 459 kts | 155° |
| 2026-05-06 19:42 | 57.19948 | 9.49919 | 38989 ft | 459 kts | 155° |
| 2026-05-06 19:43 | 57.14415 | 9.55579 | 38989 ft | 458 kts | 155° |
| 2026-05-06 19:43 | 57.08849 | 9.61253 | 38989 ft | 458 kts | 155° |
| 2026-05-06 19:44 | 57.03274 | 9.66916 | 38990 ft | 457 kts | 155° |
| 2026-05-06 19:44 | 56.97710 | 9.72550 | 38991 ft | 456 kts | 155° |
| 2026-05-06 19:45 | 56.92154 | 9.78155 | 38985 ft | 456 kts | 155° |
| 2026-05-06 19:45 | 56.86636 | 9.83703 | 38987 ft | 455 kts | 155° |
| 2026-05-06 19:46 | 56.81088 | 9.89263 | 38988 ft | 455 kts | 156° |
| 2026-05-06 19:46 | 56.75544 | 9.94800 | 38976 ft | 455 kts | 156° |
| 2026-05-06 19:47 | 56.69988 | 10.00329 | 38983 ft | 455 kts | 156° |
| 2026-05-06 19:47 | 56.64440 | 10.05832 | 38983 ft | 455 kts | 156° |
| 2026-05-06 19:48 | 56.58884 | 10.11325 | 38980 ft | 455 kts | 156° |
| 2026-05-06 19:48 | 56.53325 | 10.16802 | 38975 ft | 454 kts | 156° |
| 2026-05-06 19:49 | 56.47805 | 10.22222 | 38976 ft | 454 kts | 156° |
| 2026-05-06 19:49 | 56.42247 | 10.27662 | 38970 ft | 454 kts | 156° |
| 2026-05-06 19:50 | 56.36684 | 10.33087 | 38966 ft | 454 kts | 156° |
| 2026-05-06 19:50 | 56.31155 | 10.38462 | 38966 ft | 454 kts | 156° |
| 2026-05-06 19:51 | 56.25593 | 10.43851 | 38965 ft | 454 kts | 156° |
| 2026-05-06 19:51 | 56.20026 | 10.49227 | 38965 ft | 454 kts | 156° |
| 2026-05-06 19:52 | 56.14462 | 10.54582 | 38969 ft | 454 kts | 156° |
| 2026-05-06 19:52 | 56.08929 | 10.59890 | 38969 ft | 454 kts | 156° |
| 2026-05-06 19:53 | 56.03356 | 10.65219 | 38969 ft | 454 kts | 156° |
| 2026-05-06 19:53 | 55.97790 | 10.70523 | 38969 ft | 454 kts | 156° |
| 2026-05-06 19:54 | 55.92220 | 10.75815 | 38969 ft | 453 kts | 156° |